Time;durP1;ratioP1;P1;durP2;ratioP2;P2;SDS_P1;SDS_P2;PMS_P1;PMS_P2;Temp;Humidity;BMP_temperature;BMP_pressure;BME280_temperature;BME280_humidity;BME280_pressure;Samples;Min_cycle;Max_cycle;Signal;HPM_P1;HPM_P2
2022/12/19 00:00:35;;;;;;;33.25;19.00;;;;;;;1.59;100.00;102668.25;5085927;28;19924;-83
2022/12/19 00:03:03;;;;;;;34.10;19.83;;;;;;;1.63;100.00;102671.44;5084923;28;20044;-82
2022/12/19 00:05:36;;;;;;;34.22;18.13;;;;;;;1.74;100.00;102691.84;5085506;28;20399;-82
2022/12/19 00:08:15;;;;;;;31.48;18.08;;;;;;;1.82;100.00;102688.31;5077823;28;20495;-82
2022/12/19 00:10:55;;;;;;;30.40;17.40;;;;;;;1.80;100.00;102677.66;5077551;28;20043;-83
2022/12/19 00:13:23;;;;;;;35.92;17.50;;;;;;;1.85;100.00;102677.16;5085559;28;20044;-82
2022/12/19 00:15:52;;;;;;;29.65;17.33;;;;;;;1.87;100.00;102694.06;5091168;28;20044;-83
2022/12/19 00:18:20;;;;;;;30.58;17.60;;;;;;;1.89;100.00;102681.22;5087999;28;20044;-83
2022/12/19 00:20:59;;;;;;;31.23;18.17;;;;;;;1.99;100.00;102679.19;5090148;28;20483;-83
2022/12/19 00:23:30;;;;;;;28.02;16.33;;;;;;;1.92;100.00;102670.09;5099102;28;20402;-83
2022/12/19 00:26:16;;;;;;;27.45;15.00;;;;;;;2.00;100.00;102682.72;5076815;28;20052;-82
2022/12/19 00:28:51;;;;;;;30.35;17.05;;;;;;;1.98;100.00;102668.56;5085352;28;20052;-82
2022/12/19 00:31:21;;;;;;;31.25;16.48;;;;;;;1.99;100.00;102681.03;5075339;28;20399;-83
2022/12/19 00:33:49;;;;;;;28.23;15.73;;;;;;;1.92;100.00;102686.28;5087829;28;20379;-82
2022/12/19 00:36:23;;;;;;;29.10;16.13;;;;;;;1.95;100.00;102687.81;5093163;28;20046;-82
2022/12/19 00:38:52;;;;;;;30.30;15.43;;;;;;;1.94;100.00;102680.69;5093860;28;20156;-82
2022/12/19 00:41:28;;;;;;;29.73;16.63;;;;;;;1.92;100.00;102699.78;5091754;28;20044;-83
2022/12/19 00:43:59;;;;;;;29.30;15.88;;;;;;;1.95;100.00;102704.00;5093188;28;20406;-82
2022/12/19 00:46:29;;;;;;;24.98;15.60;;;;;;;1.77;100.00;102693.38;5092408;28;20044;-82
2022/12/19 00:48:58;;;;;;;29.10;15.40;;;;;;;1.81;100.00;102700.94;5093500;28;20453;-82
2022/12/19 00:51:28;;;;;;;25.77;15.48;;;;;;;1.78;100.00;102684.25;5092850;28;20040;-82
2022/12/19 00:53:57;;;;;;;25.02;14.68;;;;;;;1.80;100.00;102677.66;5093562;28;20048;-82
2022/12/19 00:56:30;;;;;;;26.48;14.50;;;;;;;1.88;100.00;102696.59;5089016;28;20047;-82
2022/12/19 00:59:06;;;;;;;27.60;14.38;;;;;;;1.94;100.00;102688.81;5086452;28;20051;-83
2022/12/19 01:01:37;;;;;;;24.65;12.93;;;;;;;2.01;100.00;102689.84;5090829;28;20047;-83
2022/12/19 01:04:07;;;;;;;25.42;14.25;;;;;;;2.01;100.00;102692.53;5091327;28;20518;-83
2022/12/19 01:06:55;;;;;;;24.10;14.88;;;;;;;1.95;100.00;102682.41;5092673;28;20044;-83
2022/12/19 01:09:32;;;;;;;25.23;14.73;;;;;;;1.92;100.00;102685.44;5086859;28;20415;-82
2022/12/19 01:14:54;;;;;;;29.70;13.75;;;;;;;1.99;100.00;102681.03;5097508;28;20036;-82
2022/12/19 01:17:33;;;;;;;25.38;15.32;;;;;;;2.02;100.00;102688.81;5073844;28;20048;-82
2022/12/19 01:20:14;;;;;;;24.02;12.80;;;;;;;2.02;100.00;102691.50;5081139;28;20055;-82
2022/12/19 01:22:43;;;;;;;21.48;12.35;;;;;;;2.03;100.00;102679.69;5086032;28;20048;-82
2022/12/19 01:25:14;;;;;;;25.67;12.68;;;;;;;2.13;100.00;102679.50;5086844;28;20032;-82
2022/12/19 01:27:42;;;;;;;17.70;11.52;;;;;;;2.11;100.00;102670.75;5100214;28;20051;-82
2022/12/19 01:30:10;;;;;;;20.92;12.05;;;;;;;2.12;100.00;102686.78;5091863;28;20048;-82
2022/12/19 01:32:38;;;;;;;23.30;11.60;;;;;;;2.08;100.00;102696.22;5093002;28;20047;-82
2022/12/19 01:35:07;;;;;;;20.23;11.02;;;;;;;2.07;100.00;102691.00;5092944;28;20048;-82
2022/12/19 01:37:47;;;;;;;18.58;10.90;;;;;;;2.03;100.00;102695.91;5092728;28;20040;-82
2022/12/19 01:40:16;;;;;;;18.95;11.07;;;;;;;2.07;100.00;102697.25;5091868;28;20044;-82
2022/12/19 01:42:44;;;;;;;18.05;10.82;;;;;;;1.96;100.00;102692.19;5094340;28;20047;-82
2022/12/19 01:45:15;;;;;;;17.73;10.57;;;;;;;2.03;100.00;102704.00;5093046;28;20055;-82
2022/12/19 01:47:48;;;;;;;21.50;11.57;;;;;;;2.12;100.00;102703.00;5093028;28;20040;-80
2022/12/19 01:50:28;;;;;;;16.08;11.50;;;;;;;2.09;100.00;102708.72;5071617;28;20052;-80
2022/12/19 01:52:57;;;;;;;18.45;11.73;;;;;;;2.04;100.00;102710.25;5072648;28;20049;-80
2022/12/19 01:55:25;;;;;;;20.15;11.20;;;;;;;1.95;100.00;102718.34;5072526;28;20037;-80
2022/12/19 01:57:55;;;;;;;18.75;10.80;;;;;;;1.96;100.00;102724.59;5072625;28;20048;-80
2022/12/19 02:00:24;;;;;;;20.48;10.50;;;;;;;1.85;100.00;102707.72;5079523;28;20048;-80
2022/12/19 02:02:59;;;;;;;19.73;11.30;;;;;;;1.79;100.00;102721.03;5071954;28;20040;-80
2022/12/19 02:05:28;;;;;;;19.88;11.23;;;;;;;1.71;100.00;102717.31;5072515;28;20037;-80
2022/12/19 02:07:56;;;;;;;19.25;12.07;;;;;;;1.71;100.00;102725.41;5088304;28;20048;-80
2022/12/19 02:10:24;;;;;;;16.52;11.05;;;;;;;1.73;100.00;102719.88;5077437;28;20048;-80
2022/12/19 02:12:52;;;;;;;18.13;11.55;;;;;;;1.72;100.00;102712.78;5082391;28;20036;-80
2022/12/19 02:15:21;;;;;;;17.48;11.05;;;;;;;1.74;100.00;102713.44;5090989;28;20048;-80
2022/12/19 02:17:57;;;;;;;20.27;12.10;;;;;;;1.70;100.00;102702.16;5091968;28;20052;-80
2022/12/19 02:20:49;;;;;;;19.00;11.48;;;;;;;1.70;100.00;102709.38;5087683;28;20064;-80
2022/12/19 02:23:55;;;;;;;20.45;11.95;;;;;;;1.66;100.00;102706.19;5084582;28;20039;-80
2022/12/19 02:26:36;;;;;;;19.98;13.48;;;;;;;1.66;100.00;102698.06;5090157;28;20051;-80
2022/12/19 02:29:32;;;;;;;21.65;13.25;;;;;;;1.65;100.00;102695.56;5087458;28;20402;-80
2022/12/19 02:32:10;;;;;;;20.30;13.57;;;;;;;1.56;100.00;102689.31;5087778;28;20051;-80
2022/12/19 02:34:54;;;;;;;18.23;12.68;;;;;;;1.54;100.00;102684.09;5080340;28;20420;-80
2022/12/19 02:37:29;;;;;;;23.17;14.20;;;;;;;1.50;100.00;102677.31;5089950;28;20051;-80
2022/12/19 02:40:09;;;;;;;21.33;14.00;;;;;;;1.66;100.00;102675.66;5087552;28;20483;-81
2022/12/19 02:42:42;;;;;;;20.30;13.68;;;;;;;1.68;100.00;102679.03;5087723;28;20044;-80
2022/12/19 02:45:15;;;;;;;23.27;13.38;;;;;;;1.73;100.00;102691.03;5075712;28;20525;-80
2022/12/19 02:48:00;;;;;;;20.40;13.02;;;;;;;1.71;100.00;102684.94;5088986;28;20055;-80
2022/12/19 02:50:42;;;;;;;23.02;14.38;;;;;;;1.82;100.00;102686.47;5091206;28;20055;-80
2022/12/19 02:53:14;;;;;;;17.60;12.57;;;;;;;1.81;100.00;102681.22;5090934;28;20044;-80
2022/12/19 02:55:53;;;;;;;19.70;12.73;;;;;;;1.81;100.00;102682.06;5090391;28;20692;-80
2022/12/19 02:58:43;;;;;;;21.02;12.95;;;;;;;1.60;100.00;102683.41;5089681;28;20051;-81
2022/12/19 03:01:20;;;;;;;19.35;12.50;;;;;;;1.54;100.00;102686.78;5088234;28;20059;-81
2022/12/19 03:04:24;;;;;;;17.08;11.90;;;;;;;1.55;100.00;102685.75;5070786;28;20056;-80
2022/12/19 03:07:18;;;;;;;19.25;12.18;;;;;;;1.67;100.00;102682.75;5102630;28;20036;-80
2022/12/19 03:10:01;;;;;;;21.65;12.98;;;;;;;1.54;100.00;102686.78;5086526;28;20040;-80
2022/12/19 03:12:45;;;;;;;19.20;12.85;;;;;;;1.65;100.00;102679.38;5067131;28;20426;-80
2022/12/19 03:15:14;;;;;;;19.98;13.00;;;;;;;1.41;100.00;102684.56;5088201;28;20051;-80
2022/12/19 03:17:42;;;;;;;17.83;12.07;;;;;;;1.49;100.00;102686.44;5094378;28;20044;-80
2022/12/19 03:20:46;;;;;;;20.83;12.70;;;;;;;1.27;100.00;102677.97;5093602;28;20521;-80
2022/12/19 03:23:15;;;;;;;20.60;13.38;;;;;;;1.24;100.00;102678.31;5057852;28;20041;-80
2022/12/19 03:25:49;;;;;;;21.65;13.82;;;;;;;1.29;100.00;102677.81;5094446;28;20048;-79
2022/12/19 03:28:50;;;;;;;22.67;14.75;;;;;;;1.11;100.00;102692.25;5094443;28;20067;-80
2022/12/19 03:31:22;;;;;;;21.05;13.23;;;;;;;1.05;100.00;102684.81;5086482;28;20043;-80
2022/12/19 03:33:56;;;;;;;24.63;14.82;;;;;;;1.11;100.00;102688.72;5094691;28;20158;-80
2022/12/19 03:36:35;;;;;;;25.48;14.57;;;;;;;1.03;100.00;102670.66;5094703;28;20501;-80
2022/12/19 03:39:06;;;;;;;24.67;14.48;;;;;;;1.19;100.00;102677.94;5091632;28;20055;-80
2022/12/19 03:44:30;;;;;;;19.65;12.15;;;;;;;1.06;100.00;102667.63;5100268;28;20372;-80
2022/12/19 03:47:10;;;;;;;21.88;13.40;;;;;;;0.99;100.00;102675.56;5098312;28;20043;-80
2022/12/19 03:49:38;;;;;;;23.42;13.68;;;;;;;1.19;100.00;102669.88;5112322;28;20051;-80
2022/12/19 03:52:18;;;;;;;20.30;12.48;;;;;;;1.06;100.00;102675.72;5093579;28;20513;-80
2022/12/19 03:54:59;;;;;;;21.95;13.13;;;;;;;0.93;100.00;102671.63;5095145;28;20048;-80
2022/12/19 03:57:37;;;;;;;19.15;12.55;;;;;;;0.90;100.00;102660.34;5095179;28;20044;-82
2022/12/19 04:00:10;;;;;;;23.35;12.35;;;;;;;0.60;100.00;102657.19;5106124;28;20048;-82
2022/12/19 04:02:46;;;;;;;22.20;13.13;;;;;;;0.65;100.00;102655.69;5114263;28;20410;-83
2022/12/19 04:05:18;;;;;;;24.08;12.68;;;;;;;0.68;100.00;102656.41;5115333;28;20406;-82
2022/12/19 04:07:48;;;;;;;22.05;13.10;;;;;;;0.79;100.00;102669.59;5114097;28;20043;-83
2022/12/19 04:10:20;;;;;;;18.75;12.32;;;;;;;0.81;100.00;102664.84;5115228;28;20043;-83
2022/12/19 04:12:55;;;;;;;24.42;12.60;;;;;;;0.74;100.00;102663.81;5109922;28;20055;-83
2022/12/19 04:15:34;;;;;;;20.52;13.10;;;;;;;0.72;100.00;102669.38;5085434;28;20049;-83
2022/12/19 04:18:06;;;;;;;21.67;12.85;;;;;;;0.78;100.00;102674.13;5090094;28;20044;-83
2022/12/19 04:20:40;;;;;;;20.20;12.95;;;;;;;1.07;100.00;102682.78;5086284;28;20047;-83
2022/12/19 04:23:17;;;;;;;24.20;13.05;;;;;;;1.02;100.00;102669.81;5089978;28;20040;-83
2022/12/19 04:25:49;;;;;;;23.33;13.25;;;;;;;1.07;100.00;102678.25;5083836;28;20040;-83
2022/12/19 04:28:40;;;;;;;23.42;14.35;;;;;;;1.10;100.00;102676.22;5089542;28;20406;-83
2022/12/19 04:31:13;;;;;;;25.67;14.02;;;;;;;1.13;100.00;102671.34;5084551;28;20047;-83
2022/12/19 04:33:41;;;;;;;25.05;13.65;;;;;;;1.05;100.00;102674.03;5074413;28;20227;-83
2022/12/19 04:36:10;;;;;;;24.38;13.93;;;;;;;1.11;100.00;102667.97;5086806;28;20036;-83
2022/12/19 04:38:38;;;;;;;25.85;13.70;;;;;;;1.09;100.00;102661.91;5092849;28;20037;-83
2022/12/19 04:41:06;;;;;;;22.27;14.55;;;;;;;1.14;100.00;102664.97;5085805;28;20040;-83
2022/12/19 04:43:34;;;;;;;20.85;12.88;;;;;;;0.97;100.00;102664.06;5091917;28;20348;-83
2022/12/19 04:46:03;;;;;;;22.60;13.90;;;;;;;1.00;100.00;102663.75;5092000;28;20040;-83
2022/12/19 04:48:33;;;;;;;22.02;12.90;;;;;;;1.00;100.00;102666.44;5088061;28;20044;-83
2022/12/19 04:51:01;;;;;;;21.50;13.77;;;;;;;1.01;100.00;102665.44;5086404;28;20056;-83
2022/12/19 04:53:30;;;;;;;21.65;13.82;;;;;;;0.92;100.00;102663.72;5089419;28;20032;-83
2022/12/19 04:56:04;;;;;;;21.98;12.75;;;;;;;0.91;100.00;102667.41;5088062;28;20044;-83
2022/12/19 04:58:33;;;;;;;21.27;13.02;;;;;;;1.09;100.00;102667.31;5081736;28;20047;-83
2022/12/19 05:01:05;;;;;;;24.85;14.10;;;;;;;1.14;100.00;102661.41;5092433;28;20048;-83
2022/12/19 05:03:34;;;;;;;22.48;13.30;;;;;;;1.12;100.00;102663.44;5092739;28;20052;-83
2022/12/19 05:06:05;;;;;;;22.48;13.95;;;;;;;1.20;100.00;102671.53;5075700;28;20048;-83
2022/12/19 05:08:34;;;;;;;22.05;12.85;;;;;;;1.15;100.00;102668.50;5092914;28;20059;-83
2022/12/19 05:11:03;;;;;;;22.77;13.10;;;;;;;1.11;100.00;102677.94;5092299;28;20494;-83
2022/12/19 05:13:31;;;;;;;19.73;12.32;;;;;;;1.03;100.00;102679.59;5090573;28;20056;-83
2022/12/19 05:16:02;;;;;;;18.40;11.35;;;;;;;0.97;100.00;102676.72;5088900;28;20040;-83
2022/12/19 05:18:30;;;;;;;20.42;11.85;;;;;;;0.65;100.00;102679.13;5088192;28;20486;-83
2022/12/19 05:20:58;;;;;;;19.45;12.32;;;;;;;0.79;100.00;102673.09;5086337;28;20059;-83
2022/12/19 05:23:26;;;;;;;20.17;11.77;;;;;;;0.86;100.00;102670.59;5088093;28;20044;-84
2022/12/19 05:25:58;;;;;;;20.40;12.88;;;;;;;0.74;100.00;102659.25;5088405;28;20037;-82
2022/12/19 05:28:27;;;;;;;19.70;13.10;;;;;;;0.86;100.00;102648.19;5093345;28;20032;-81
2022/12/19 05:31:21;;;;;;;25.35;13.43;;;;;;;0.88;100.00;102648.88;5092783;28;20059;-81
2022/12/19 05:33:50;;;;;;;22.77;13.38;;;;;;;0.99;100.00;102637.81;5085130;28;20517;-83
2022/12/19 05:36:18;;;;;;;23.17;13.48;;;;;;;0.92;100.00;102640.31;5090793;28;20047;-84
2022/12/19 05:38:46;;;;;;;23.05;13.10;;;;;;;0.93;100.00;102650.06;5092313;28;20059;-84
2022/12/19 05:41:17;;;;;;;24.27;14.40;;;;;;;0.90;100.00;102654.94;5092970;28;20048;-84
2022/12/19 05:43:49;;;;;;;28.25;15.15;;;;;;;0.95;100.00;102660.69;5095112;28;20044;-84
2022/12/19 05:46:18;;;;;;;23.73;12.77;;;;;;;0.94;100.00;102662.53;5094392;28;20048;-84
2022/12/19 05:48:46;;;;;;;25.48;14.43;;;;;;;1.08;100.00;102679.13;5091777;28;20044;-84
2022/12/19 05:51:15;;;;;;;26.05;13.82;;;;;;;1.09;100.00;102670.00;5092949;28;20051;-84
2022/12/19 05:53:43;;;;;;;26.05;14.55;;;;;;;1.22;100.00;102666.00;5092306;28;20040;-84
2022/12/19 05:56:17;;;;;;;23.92;13.13;;;;;;;0.99;100.00;102678.25;5091725;28;20059;-84
2022/12/19 05:58:45;;;;;;;27.00;14.75;;;;;;;1.06;100.00;102681.09;5091843;28;20052;-84
2022/12/19 06:01:15;;;;;;;23.85;14.10;;;;;;;1.19;100.00;102681.47;5078266;28;20040;-87
2022/12/19 06:03:43;;;;;;;26.67;14.82;;;;;;;1.27;100.00;102686.06;5089871;28;20040;-88
2022/12/19 06:06:14;;;;;;;33.33;15.38;;;;;;;1.10;100.00;102681.63;5091332;28;20051;-87
2022/12/19 06:08:43;;;;;;;28.70;14.20;;;;;;;1.02;100.00;102675.19;5091226;28;20051;-87
2022/12/19 06:11:12;;;;;;;28.33;14.00;;;;;;;1.22;100.00;102687.56;5090858;28;20043;-89
2022/12/19 06:13:40;;;;;;;31.58;15.45;;;;;;;1.21;100.00;102689.41;5075205;28;20045;-88
2022/12/19 06:16:17;;;;;;;28.27;15.07;;;;;;;1.25;100.00;102701.56;5080282;28;20043;-87
2022/12/19 06:18:45;;;;;;;28.83;14.60;;;;;;;1.40;100.00;102706.31;5081891;28;20480;-89
2022/12/19 06:21:16;;;;;;;28.23;14.57;;;;;;;1.36;100.00;102707.66;5088707;28;20046;-87
2022/12/19 06:23:45;;;;;;;32.78;16.08;;;;;;;1.33;100.00;102703.44;5081966;28;20040;-88
2022/12/19 06:26:16;;;;;;;31.00;15.35;;;;;;;1.48;100.00;102703.66;5092357;28;20040;-88
2022/12/19 06:28:51;;;;;;;36.17;16.52;;;;;;;1.64;100.00;102701.97;5092237;28;20035;-88
2022/12/19 06:31:21;;;;;;;30.38;15.32;;;;;;;1.57;100.00;102701.81;5088460;28;20040;-88
2022/12/19 06:33:50;;;;;;;27.73;15.60;;;;;;;1.64;100.00;102704.66;5089188;28;20059;-88
2022/12/19 06:36:19;;;;;;;32.28;16.15;;;;;;;1.80;100.00;102699.28;5092134;28;20047;-87
2022/12/19 06:38:49;;;;;;;32.63;17.00;;;;;;;1.86;100.00;102695.91;5090371;28;20379;-86
2022/12/19 06:44:08;;;;;;;32.30;15.63;;;;;;;1.90;100.00;102691.00;5092119;28;20390;-87
2022/12/19 06:46:39;;;;;;;34.47;16.13;;;;;;;1.82;100.00;102694.56;5072273;28;20044;-87
2022/12/19 06:49:08;;;;;;;31.95;15.45;;;;;;;1.86;100.00;102682.41;5073101;28;20342;-87
2022/12/19 06:51:36;;;;;;;28.30;15.40;;;;;;;1.53;100.00;102687.81;5076036;28;20372;-86
2022/12/19 06:54:04;;;;;;;26.73;15.25;;;;;;;1.73;100.00;102692.88;5075710;28;20071;-87
2022/12/19 06:56:36;;;;;;;28.52;14.77;;;;;;;1.49;100.00;102694.53;5075832;28;20048;-86
2022/12/19 06:59:05;;;;;;;25.00;14.43;;;;;;;1.63;100.00;102705.69;5075931;28;20056;-86
2022/12/19 07:01:48;;;;;;;28.38;15.32;;;;;;;1.62;100.00;102712.94;5075758;28;20048;-86
2022/12/19 07:04:22;;;;;;;30.63;16.27;;;;;;;1.56;100.00;102709.03;5075812;28;20399;-86
2022/12/19 07:06:50;;;;;;;27.48;14.10;;;;;;;1.60;100.00;102713.09;5075750;28;20047;-84
2022/12/19 07:09:18;;;;;;;25.65;13.90;;;;;;;1.75;100.00;102712.44;5075656;28;20064;-86
2022/12/19 07:11:46;;;;;;;28.05;14.82;;;;;;;1.70;100.00;102706.69;5075553;28;20399;-87
2022/12/19 07:14:14;;;;;;;30.48;14.75;;;;;;;1.61;100.00;102722.03;5075426;28;20051;-89
2022/12/19 07:16:42;;;;;;;28.85;14.63;;;;;;;1.76;100.00;102716.81;5090926;28;20041;-90
2022/12/19 07:19:11;;;;;;;28.33;15.75;;;;;;;1.75;100.00;102717.81;5091112;28;20041;-89
2022/12/19 07:21:40;;;;;;;26.58;13.38;;;;;;;1.87;100.00;102711.09;5075391;28;20399;-90
2022/12/19 07:24:10;;;;;;;31.65;15.27;;;;;;;1.91;100.00;102708.88;5074235;28;20032;-90
2022/12/19 07:26:38;;;;;;;28.92;14.77;;;;;;;1.95;100.00;102698.63;5073756;28;20059;-90
2022/12/19 07:29:07;;;;;;;31.25;15.10;;;;;;;2.00;100.00;102704.31;5076415;28;20048;-89
2022/12/19 07:31:35;;;;;;;32.00;14.07;;;;;;;1.80;100.00;102709.25;5075108;28;20375;-89
2022/12/19 07:34:03;;;;;;;28.38;14.80;;;;;;;1.84;100.00;102702.47;5075134;28;20519;-90
2022/12/19 07:36:31;;;;;;;27.10;13.70;;;;;;;1.86;100.00;102704.00;5073331;28;20506;-89
2022/12/19 07:39:00;;;;;;;32.08;14.40;;;;;;;2.00;100.00;102699.78;5073773;28;20052;-89
2022/12/19 07:41:28;;;;;;;26.55;14.93;;;;;;;1.87;100.00;102710.25;5074954;28;20047;-89
2022/12/19 07:43:56;;;;;;;29.60;14.25;;;;;;;1.98;100.00;102700.97;5074990;28;20399;-89
2022/12/19 07:46:28;;;;;;;26.52;13.52;;;;;;;1.95;100.00;102698.63;5075097;28;20396;-86
2022/12/19 07:48:56;;;;;;;23.95;13.02;;;;;;;2.24;100.00;102708.00;5075560;28;20051;-85
2022/12/19 07:51:24;;;;;;;35.83;15.57;;;;;;;2.20;100.00;102715.63;5073765;28;20055;-86
2022/12/19 07:53:52;;;;;;;31.20;14.75;;;;;;;2.23;100.00;102717.13;5073380;28;20051;-86
2022/12/19 07:56:20;;;;;;;29.58;14.50;;;;;;;2.37;100.00;102711.06;5073578;28;20044;-86
2022/12/19 07:58:48;;;;;;;34.88;15.15;;;;;;;2.21;100.00;102705.66;5090404;28;20040;-86
2022/12/19 08:01:17;;;;;;;32.97;15.35;;;;;;;2.27;100.00;102711.25;5072707;28;20048;-85
2022/12/19 08:03:45;;;;;;;31.67;15.68;;;;;;;2.41;100.00;102706.97;5074815;28;20111;-85
2022/12/19 08:06:13;;;;;;;37.92;16.25;;;;;;;2.43;100.00;102704.09;5074825;28;20048;-86
2022/12/19 08:08:41;;;;;;;38.85;16.48;;;;;;;2.51;100.00;102711.34;5090165;28;20041;-85
2022/12/19 08:11:12;;;;;;;32.72;15.80;;;;;;;2.73;100.00;102715.16;5074877;28;20052;-86
2022/12/19 08:13:40;;;;;;;36.92;16.75;;;;;;;2.73;100.00;102712.47;5074777;28;20051;-86
2022/12/19 08:16:14;;;;;;;35.67;17.25;;;;;;;2.88;100.00;102717.97;5074460;28;20044;-86
2022/12/19 08:18:42;;;;;;;35.80;15.77;;;;;;;2.74;100.00;102719.53;5073033;28;20047;-85
2022/12/19 08:21:10;;;;;;;41.03;16.40;;;;;;;2.73;100.00;102725.97;5074378;28;20407;-85
2022/12/19 08:23:38;;;;;;;27.65;14.07;;;;;;;2.73;100.00;102717.88;5074198;28;20052;-86
2022/12/19 08:26:10;;;;;;;37.15;15.85;;;;;;;2.66;100.00;102715.03;5074224;28;20052;-86
2022/12/19 08:28:39;;;;;;;33.33;15.32;;;;;;;2.45;100.00;102712.91;5074650;28;20052;-85
2022/12/19 08:31:13;;;;;;;37.45;15.02;;;;;;;2.68;100.00;102717.53;5093256;28;20394;-85
2022/12/19 08:33:41;;;;;;;37.05;16.48;;;;;;;2.72;100.00;102718.03;5094190;28;20048;-85
2022/12/19 08:36:12;;;;;;;34.33;15.88;;;;;;;2.75;100.00;102717.69;5094261;28;20044;-85
2022/12/19 08:38:40;;;;;;;30.40;14.05;;;;;;;2.76;100.00;102720.25;5094212;28;20048;-85
2022/12/19 08:41:08;;;;;;;33.92;15.63;;;;;;;2.87;100.00;102710.88;5094165;28;20051;-86
2022/12/19 08:43:39;;;;;;;32.50;16.17;;;;;;;2.82;100.00;102714.13;5094031;28;20048;-85
2022/12/19 08:46:08;;;;;;;34.45;16.20;;;;;;;2.77;100.00;102710.25;5094075;28;20489;-84
2022/12/19 08:48:36;;;;;;;33.55;16.27;;;;;;;2.77;100.00;102710.25;5094091;28;20055;-84
2022/12/19 08:51:06;;;;;;;41.15;20.23;;;;;;;3.00;100.00;102709.47;5093927;28;20043;-83
2022/12/19 08:53:37;;;;;;;40.42;18.73;;;;;;;3.16;100.00;102704.00;5094076;28;20474;-84
2022/12/19 08:56:09;;;;;;;39.38;18.25;;;;;;;3.27;100.00;102704.63;5092722;28;20544;-83
2022/12/19 08:58:37;;;;;;;37.00;17.50;;;;;;;3.44;100.00;102700.78;5093993;28;20040;-84
2022/12/19 09:01:07;;;;;;;36.83;18.70;;;;;;;3.69;100.00;102706.03;5092630;28;20051;-84
2022/12/19 09:03:36;;;;;;;40.50;18.15;;;;;;;3.59;100.00;102705.41;5093684;28;20494;-83
2022/12/19 09:06:25;;;;;;;41.13;17.83;;;;;;;3.57;100.00;102710.19;5093675;28;20055;-83
2022/12/19 09:08:53;;;;;;;45.38;19.65;;;;;;;3.68;100.00;102714.31;5073633;28;20051;-83
2022/12/19 09:11:27;;;;;;;41.63;19.35;;;;;;;3.60;100.00;102718.78;5087989;28;20048;-83
2022/12/19 09:13:56;;;;;;;39.22;18.88;;;;;;;3.85;100.00;102723.16;5072109;28;20051;-83
2022/12/19 09:16:26;;;;;;;39.35;19.52;;;;;;;3.82;100.00;102720.81;5088687;28;20495;-83
2022/12/19 09:18:57;;;;;;;39.00;20.27;;;;;;;3.73;100.00;102720.88;5073185;28;20505;-83
2022/12/19 09:21:28;;;;;;;39.00;20.00;;;;;;;3.93;100.00;102719.53;5073241;28;20048;-83
2022/12/19 09:23:58;;;;;;;42.33;19.40;;;;;;;4.08;100.00;102725.00;5073036;28;20052;-83
2022/12/19 09:26:37;;;;;;;40.63;19.27;;;;;;;4.00;100.00;102720.50;5072932;28;20510;-83
2022/12/19 09:29:06;;;;;;;47.00;19.75;;;;;;;3.96;100.00;102714.59;5071766;28;20055;-83
2022/12/19 09:31:48;;;;;;;43.20;19.20;;;;;;;4.09;100.00;102721.25;5072711;28;20044;-84
2022/12/19 09:34:27;;;;;;;41.83;20.40;;;;;;;4.26;100.00;102721.97;5072912;28;20052;-84
2022/12/19 09:37:07;;;;;;;44.65;20.63;;;;;;;4.28;100.00;102730.75;5072836;28;20040;-84
2022/12/19 09:39:35;;;;;;;49.55;21.13;;;;;;;4.48;100.00;102727.50;5072793;28;20051;-84
2022/12/19 09:42:29;;;;;;;81.10;32.60;;;;;;;4.27;100.00;102729.94;5072725;28;20508;-84
2022/12/19 09:45:22;;;;;;;58.80;25.38;;;;;;;4.36;100.00;102727.97;5072648;28;20400;-84
2022/12/19 09:48:01;;;;;;;53.17;23.80;;;;;;;4.34;100.00;102721.06;5072507;28;20044;-84
2022/12/19 09:50:38;;;;;;;44.28;20.00;;;;;;;4.27;100.00;102718.22;5071325;28;20055;-83
2022/12/19 09:53:27;;;;;;;43.38;19.35;;;;;;;4.44;100.00;102724.31;5072427;28;20055;-84
2022/12/19 09:55:58;;;;;;;44.08;20.20;;;;;;;4.41;100.00;102716.56;5072495;28;20049;-84
2022/12/19 09:58:39;;;;;;;48.92;22.23;;;;;;;4.52;100.00;102713.41;5072413;28;20044;-88
2022/12/19 10:01:18;;;;;;;41.85;18.90;;;;;;;4.54;100.00;102714.03;5054693;28;20049;-87
2022/12/19 10:04:02;;;;;;;43.88;20.73;;;;;;;4.45;100.00;102715.16;5072470;28;20053;-83
2022/12/19 10:06:30;;;;;;;43.13;21.20;;;;;;;4.63;100.00;102708.50;5072452;28;20045;-83
2022/12/19 10:09:20;;;;;;;44.92;19.70;;;;;;;4.56;100.00;102714.69;5072428;28;20487;-83
2022/12/19 10:12:08;;;;;;;44.38;19.58;;;;;;;4.38;100.00;102704.22;5072454;28;20051;-80
2022/12/19 10:15:12;;;;;;;43.20;20.73;;;;;;;4.56;100.00;102709.25;5072366;28;20040;-83
2022/12/19 10:18:11;;;;;;;44.45;20.80;;;;;;;4.57;100.00;102713.69;5072606;28;20048;-83
2022/12/19 10:20:44;;;;;;;44.60;20.98;;;;;;;4.55;100.00;102723.03;5072162;28;20415;-83
2022/12/19 10:23:36;;;;;;;41.43;18.57;;;;;;;4.56;100.00;102717.41;5070825;28;20049;-83
2022/12/19 10:26:28;;;;;;;36.03;17.13;;;;;;;4.72;100.00;102712.81;5072266;28;20299;-83
2022/12/19 10:29:21;;;;;;;42.08;20.83;;;;;;;4.54;100.00;102716.75;5072251;28;20049;-83
2022/12/19 10:32:35;;;;;;;39.80;19.50;;;;;;;4.62;100.00;102709.53;5071925;28;20052;-82
2022/12/19 10:35:15;;;;;;;34.45;18.40;;;;;;;4.76;100.00;102697.88;5058391;28;20082;-83
2022/12/19 10:38:21;;;;;;;41.55;19.20;;;;;;;4.78;100.00;102701.22;5070845;28;20049;-83
2022/12/19 10:40:49;;;;;;;;;;;;;;;4.39;100.00;102700.47;5072485;28;20067;-82
2022/12/19 10:43:46;;;;;;;44.35;19.50;;;;;;;4.43;100.00;102698.22;5071990;28;19931;-82
2022/12/19 10:46:27;;;;;;;41.58;18.85;;;;;;;4.74;100.00;102688.22;5072063;28;20043;-81
2022/12/19 10:48:55;;;;;;;39.65;19.40;;;;;;;4.56;100.00;102695.69;5072069;28;20044;-83
2022/12/19 10:51:27;;;;;;;42.72;18.92;;;;;;;4.60;100.00;102687.22;5072029;28;20048;-83
2022/12/19 10:53:58;;;;;;;41.85;17.80;;;;;;;4.64;100.00;102680.38;5071811;28;20390;-83
2022/12/19 10:56:29;;;;;;;42.92;19.27;;;;;;;4.78;100.00;102665.09;5071994;28;20048;-83
2022/12/19 10:59:16;;;;;;;39.42;18.00;;;;;;;4.78;100.00;102678.66;5071886;28;20044;-82
2022/12/19 11:01:46;;;;;;;37.83;18.35;;;;;;;4.64;100.00;102677.69;5071831;28;20051;-83
2022/12/19 11:04:33;;;;;;;44.97;19.10;;;;;;;4.71;100.00;102662.31;5071714;28;20060;-83
2022/12/19 11:07:04;;;;;;;41.05;19.88;;;;;;;4.52;100.00;102667.31;5071872;28;20053;-83
2022/12/19 11:09:41;;;;;;;36.72;17.98;;;;;;;4.61;100.00;102667.19;5071786;28;20426;-83
2022/12/19 11:12:17;;;;;;;46.00;20.05;;;;;;;4.56;100.00;102665.06;5071785;28;20041;-83
2022/12/19 11:15:13;;;;;;;36.67;17.70;;;;;;;4.65;100.00;102665.78;5071692;28;20037;-83
2022/12/19 11:18:08;;;;;;;44.85;19.35;;;;;;;4.75;100.00;102662.78;5071707;28;20055;-83
2022/12/19 11:21:00;;;;;;;39.00;18.40;;;;;;;4.94;100.00;102655.94;5070263;28;20060;-83
2022/12/19 11:24:10;;;;;;;40.70;19.05;;;;;;;4.87;100.00;102650.41;5071544;28;20103;-83
2022/12/19 11:26:58;;;;;;;41.60;20.38;;;;;;;4.88;100.00;102649.38;5070290;28;20394;-84
2022/12/19 11:29:49;;;;;;;45.00;20.23;;;;;;;4.86;100.00;102653.31;5071541;28;20068;-88
2022/12/19 11:32:39;;;;;;;44.88;20.52;;;;;;;4.73;100.00;102637.72;5084277;28;20051;-86
2022/12/19 11:35:22;;;;;;;42.03;20.67;;;;;;;5.08;100.00;102633.31;5069779;28;20060;-87
2022/12/19 11:38:03;;;;;;;44.90;21.55;;;;;;;5.15;100.00;102636.13;5075349;28;20487;-87
2022/12/19 11:40:44;;;;;;;37.80;19.45;;;;;;;5.17;100.00;102634.03;5073880;28;20049;-86
2022/12/19 11:43:26;;;;;;;46.95;20.52;;;;;;;5.41;100.00;102625.69;5075147;28;20044;-86
2022/12/19 11:46:41;;;;;;;36.90;18.77;;;;;;;5.43;100.00;102626.38;5075254;28;20041;-85
2022/12/19 11:49:31;;;;;;;97.38;39.75;;;;;;;5.40;100.00;102619.44;5068601;28;20044;-84
2022/12/19 11:52:16;;;;;;;44.25;20.50;;;;;;;5.53;100.00;102618.72;5075034;28;20041;-84